sensor_id;sensor_type;location;lat;lon;timestamp;temperature;humidity
47162;DHT22;32921;53.256;8.198;2023-01-23T00:01:17;2.20;99.90
47162;DHT22;32921;53.256;8.198;2023-01-23T00:03:43;2.30;99.90
47162;DHT22;32921;53.256;8.198;2023-01-23T00:06:14;2.20;99.90
47162;DHT22;32921;53.256;8.198;2023-01-23T00:08:40;2.20;99.90
47162;DHT22;32921;53.256;8.198;2023-01-23T00:11:09;2.20;99.90
47162;DHT22;32921;53.256;8.198;2023-01-23T00:13:35;2.10;99.90
47162;DHT22;32921;53.256;8.198;2023-01-23T00:16:12;2.00;99.90
47162;DHT22;32921;53.256;8.198;2023-01-23T00:18:38;2.00;99.90
47162;DHT22;32921;53.256;8.198;2023-01-23T00:21:05;2.00;99.90
47162;DHT22;32921;53.256;8.198;2023-01-23T00:23:32;2.00;99.90
47162;DHT22;32921;53.256;8.198;2023-01-23T00:26:21;2.00;99.90
47162;DHT22;32921;53.256;8.198;2023-01-23T00:28:47;2.00;99.90
47162;DHT22;32921;53.256;8.198;2023-01-23T00:31:16;2.10;99.90
47162;DHT22;32921;53.256;8.198;2023-01-23T00:33:43;2.10;99.90
47162;DHT22;32921;53.256;8.198;2023-01-23T00:36:10;2.20;99.90
47162;DHT22;32921;53.256;8.198;2023-01-23T00:38:35;2.20;99.90
47162;DHT22;32921;53.256;8.198;2023-01-23T00:41:01;2.20;99.90
47162;DHT22;32921;53.256;8.198;2023-01-23T00:43:28;2.30;99.90
47162;DHT22;32921;53.256;8.198;2023-01-23T00:45:54;2.30;99.90
47162;DHT22;32921;53.256;8.198;2023-01-23T00:48:20;2.30;99.90
47162;DHT22;32921;53.256;8.198;2023-01-23T00:50:46;2.30;99.90
47162;DHT22;32921;53.256;8.198;2023-01-23T00:53:11;2.40;99.90
47162;DHT22;32921;53.256;8.198;2023-01-23T00:55:38;2.40;99.90
47162;DHT22;32921;53.256;8.198;2023-01-23T00:58:09;2.40;99.90
47162;DHT22;32921;53.256;8.198;2023-01-23T01:00:36;2.40;99.90
47162;DHT22;32921;53.256;8.198;2023-01-23T01:03:02;2.40;99.90
47162;DHT22;32921;53.256;8.198;2023-01-23T01:05:28;2.30;99.90
47162;DHT22;32921;53.256;8.198;2023-01-23T01:07:54;2.40;99.90
47162;DHT22;32921;53.256;8.198;2023-01-23T01:10:20;2.30;99.90
47162;DHT22;32921;53.256;8.198;2023-01-23T01:12:45;2.30;99.90
47162;DHT22;32921;53.256;8.198;2023-01-23T01:15:12;2.10;99.90
47162;DHT22;32921;53.256;8.198;2023-01-23T01:17:38;2.00;99.90
47162;DHT22;32921;53.256;8.198;2023-01-23T01:20:04;1.90;99.90
47162;DHT22;32921;53.256;8.198;2023-01-23T01:22:31;2.10;99.90
47162;DHT22;32921;53.256;8.198;2023-01-23T01:24:56;1.90;99.90
47162;DHT22;32921;53.256;8.198;2023-01-23T01:27:22;2.00;99.90
47162;DHT22;32921;53.256;8.198;2023-01-23T01:29:48;2.00;99.90
47162;DHT22;32921;53.256;8.198;2023-01-23T01:32:14;2.10;99.90
47162;DHT22;32921;53.256;8.198;2023-01-23T01:34:39;2.10;99.90
47162;DHT22;32921;53.256;8.198;2023-01-23T01:37:05;2.00;99.90
47162;DHT22;32921;53.256;8.198;2023-01-23T01:39:30;2.00;99.90
47162;DHT22;32921;53.256;8.198;2023-01-23T01:41:56;2.00;99.90
47162;DHT22;32921;53.256;8.198;2023-01-23T01:44:23;1.90;99.90
47162;DHT22;32921;53.256;8.198;2023-01-23T01:46:49;2.00;99.90
47162;DHT22;32921;53.256;8.198;2023-01-23T01:49:19;1.90;99.90
47162;DHT22;32921;53.256;8.198;2023-01-23T01:52:04;1.90;99.90
47162;DHT22;32921;53.256;8.198;2023-01-23T01:54:47;1.90;99.90
47162;DHT22;32921;53.256;8.198;2023-01-23T01:57:25;2.10;99.90
47162;DHT22;32921;53.256;8.198;2023-01-23T02:03:02;2.10;99.90
47162;DHT22;32921;53.256;8.198;2023-01-23T02:05:35;2.10;99.90
47162;DHT22;32921;53.256;8.198;2023-01-23T02:10:49;2.20;99.90
47162;DHT22;32921;53.256;8.198;2023-01-23T02:13:28;2.30;99.90
47162;DHT22;32921;53.256;8.198;2023-01-23T02:16:16;2.30;99.90
47162;DHT22;32921;53.256;8.198;2023-01-23T02:18:44;2.30;99.90
47162;DHT22;32921;53.256;8.198;2023-01-23T02:21:13;2.30;99.90
47162;DHT22;32921;53.256;8.198;2023-01-23T02:24:08;2.30;99.90
47162;DHT22;32921;53.256;8.198;2023-01-23T02:26:39;2.30;99.90
47162;DHT22;32921;53.256;8.198;2023-01-23T02:29:05;2.30;99.90
47162;DHT22;32921;53.256;8.198;2023-01-23T02:31:31;2.20;99.90
47162;DHT22;32921;53.256;8.198;2023-01-23T02:33:58;2.20;99.90
47162;DHT22;32921;53.256;8.198;2023-01-23T02:36:27;2.10;99.90
47162;DHT22;32921;53.256;8.198;2023-01-23T02:41:28;2.00;99.90
47162;DHT22;32921;53.256;8.198;2023-01-23T02:43:55;2.10;99.90
47162;DHT22;32921;53.256;8.198;2023-01-23T02:46:23;2.10;99.90
47162;DHT22;32921;53.256;8.198;2023-01-23T02:48:49;2.20;99.90
47162;DHT22;32921;53.256;8.198;2023-01-23T02:51:14;2.20;99.90
47162;DHT22;32921;53.256;8.198;2023-01-23T02:53:42;2.20;99.90
47162;DHT22;32921;53.256;8.198;2023-01-23T02:56:07;2.10;99.90
47162;DHT22;32921;53.256;8.198;2023-01-23T02:58:33;2.20;99.90
47162;DHT22;32921;53.256;8.198;2023-01-23T03:01:17;2.10;99.90
47162;DHT22;32921;53.256;8.198;2023-01-23T03:03:43;2.10;99.90
47162;DHT22;32921;53.256;8.198;2023-01-23T03:06:09;2.10;99.90
47162;DHT22;32921;53.256;8.198;2023-01-23T03:08:36;2.00;99.90
47162;DHT22;32921;53.256;8.198;2023-01-23T03:11:12;2.00;99.90
47162;DHT22;32921;53.256;8.198;2023-01-23T03:13:37;2.10;99.90
47162;DHT22;32921;53.256;8.198;2023-01-23T03:16:03;2.10;99.90
47162;DHT22;32921;53.256;8.198;2023-01-23T03:18:29;2.00;99.90
47162;DHT22;32921;53.256;8.198;2023-01-23T03:21:04;2.10;99.90
47162;DHT22;32921;53.256;8.198;2023-01-23T03:23:30;2.10;99.90
47162;DHT22;32921;53.256;8.198;2023-01-23T03:25:55;2.10;99.90
47162;DHT22;32921;53.256;8.198;2023-01-23T03:28:26;2.10;99.90
47162;DHT22;32921;53.256;8.198;2023-01-23T03:31:15;2.20;99.90
47162;DHT22;32921;53.256;8.198;2023-01-23T03:33:42;2.10;99.90
47162;DHT22;32921;53.256;8.198;2023-01-23T03:36:10;2.10;99.90
47162;DHT22;32921;53.256;8.198;2023-01-23T03:38:36;2.10;99.90
47162;DHT22;32921;53.256;8.198;2023-01-23T03:41:02;2.10;99.90
47162;DHT22;32921;53.256;8.198;2023-01-23T03:43:46;2.10;99.90
47162;DHT22;32921;53.256;8.198;2023-01-23T03:46:11;2.00;99.90
47162;DHT22;32921;53.256;8.198;2023-01-23T03:48:37;2.00;99.90
47162;DHT22;32921;53.256;8.198;2023-01-23T03:51:10;2.10;99.90
47162;DHT22;32921;53.256;8.198;2023-01-23T03:53:35;2.00;99.90
47162;DHT22;32921;53.256;8.198;2023-01-23T03:56:01;2.10;99.90
47162;DHT22;32921;53.256;8.198;2023-01-23T03:58:27;2.00;99.90
47162;DHT22;32921;53.256;8.198;2023-01-23T04:00:52;2.10;99.90
47162;DHT22;32921;53.256;8.198;2023-01-23T04:03:18;2.10;99.90
47162;DHT22;32921;53.256;8.198;2023-01-23T04:05:43;2.10;99.90
47162;DHT22;32921;53.256;8.198;2023-01-23T04:08:09;2.20;99.90
47162;DHT22;32921;53.256;8.198;2023-01-23T04:10:35;2.20;99.90
47162;DHT22;32921;53.256;8.198;2023-01-23T04:13:00;2.20;99.90
47162;DHT22;32921;53.256;8.198;2023-01-23T04:15:26;2.20;99.90
47162;DHT22;32921;53.256;8.198;2023-01-23T04:17:51;2.20;99.90
47162;DHT22;32921;53.256;8.198;2023-01-23T04:20:17;2.20;99.90
47162;DHT22;32921;53.256;8.198;2023-01-23T04:22:43;2.20;99.90
47162;DHT22;32921;53.256;8.198;2023-01-23T04:25:08;2.20;99.90
47162;DHT22;32921;53.256;8.198;2023-01-23T04:27:34;2.20;99.90
47162;DHT22;32921;53.256;8.198;2023-01-23T04:29:59;2.20;99.90
47162;DHT22;32921;53.256;8.198;2023-01-23T04:32:25;2.20;99.90
47162;DHT22;32921;53.256;8.198;2023-01-23T04:34:51;2.20;99.90
47162;DHT22;32921;53.256;8.198;2023-01-23T04:37:16;2.20;99.90
47162;DHT22;32921;53.256;8.198;2023-01-23T04:39:42;2.20;99.90
47162;DHT22;32921;53.256;8.198;2023-01-23T04:42:08;2.20;99.90
47162;DHT22;32921;53.256;8.198;2023-01-23T04:44:34;2.20;99.90
47162;DHT22;32921;53.256;8.198;2023-01-23T04:46:59;2.20;99.90
47162;DHT22;32921;53.256;8.198;2023-01-23T04:49:26;2.20;99.90
47162;DHT22;32921;53.256;8.198;2023-01-23T04:51:52;2.20;99.90
47162;DHT22;32921;53.256;8.198;2023-01-23T04:54:19;2.20;99.90
47162;DHT22;32921;53.256;8.198;2023-01-23T04:56:45;2.20;99.90
47162;DHT22;32921;53.256;8.198;2023-01-23T04:59:12;2.20;99.90
47162;DHT22;32921;53.256;8.198;2023-01-23T05:01:37;2.10;99.90
47162;DHT22;32921;53.256;8.198;2023-01-23T05:04:03;2.20;99.90
47162;DHT22;32921;53.256;8.198;2023-01-23T05:06:30;2.30;99.90
47162;DHT22;32921;53.256;8.198;2023-01-23T05:08:55;2.20;99.90
47162;DHT22;32921;53.256;8.198;2023-01-23T05:11:21;2.20;99.90
47162;DHT22;32921;53.256;8.198;2023-01-23T05:13:47;2.20;99.90
47162;DHT22;32921;53.256;8.198;2023-01-23T05:16:12;2.20;99.90
47162;DHT22;32921;53.256;8.198;2023-01-23T05:18:38;2.20;99.90
47162;DHT22;32921;53.256;8.198;2023-01-23T05:21:04;2.20;99.90
47162;DHT22;32921;53.256;8.198;2023-01-23T05:23:29;2.20;99.90
47162;DHT22;32921;53.256;8.198;2023-01-23T05:25:55;2.20;99.90
47162;DHT22;32921;53.256;8.198;2023-01-23T05:28:21;2.20;99.90
47162;DHT22;32921;53.256;8.198;2023-01-23T05:30:46;2.30;99.90
47162;DHT22;32921;53.256;8.198;2023-01-23T05:33:12;2.20;99.90
47162;DHT22;32921;53.256;8.198;2023-01-23T05:35:38;2.10;99.90
47162;DHT22;32921;53.256;8.198;2023-01-23T05:38:04;2.10;99.90
47162;DHT22;32921;53.256;8.198;2023-01-23T05:40:32;2.20;99.90
47162;DHT22;32921;53.256;8.198;2023-01-23T05:42:58;2.20;99.90
47162;DHT22;32921;53.256;8.198;2023-01-23T05:45:23;2.20;99.90
47162;DHT22;32921;53.256;8.198;2023-01-23T05:47:49;2.10;99.90
47162;DHT22;32921;53.256;8.198;2023-01-23T05:50:17;2.10;99.90
47162;DHT22;32921;53.256;8.198;2023-01-23T05:52:43;2.10;99.90
47162;DHT22;32921;53.256;8.198;2023-01-23T05:55:09;2.20;99.90
47162;DHT22;32921;53.256;8.198;2023-01-23T05:57:35;2.20;99.90
47162;DHT22;32921;53.256;8.198;2023-01-23T06:00:01;2.20;99.90
47162;DHT22;32921;53.256;8.198;2023-01-23T06:02:27;2.20;99.90
47162;DHT22;32921;53.256;8.198;2023-01-23T06:04:52;2.10;99.90
47162;DHT22;32921;53.256;8.198;2023-01-23T06:07:18;2.10;99.90
47162;DHT22;32921;53.256;8.198;2023-01-23T06:09:44;2.20;99.90
47162;DHT22;32921;53.256;8.198;2023-01-23T06:12:11;2.20;99.90
47162;DHT22;32921;53.256;8.198;2023-01-23T06:14:37;2.20;99.90
47162;DHT22;32921;53.256;8.198;2023-01-23T06:17:03;2.10;99.90
47162;DHT22;32921;53.256;8.198;2023-01-23T06:19:28;2.10;99.90
47162;DHT22;32921;53.256;8.198;2023-01-23T06:21:54;2.20;99.90
47162;DHT22;32921;53.256;8.198;2023-01-23T06:24:20;2.10;99.90
47162;DHT22;32921;53.256;8.198;2023-01-23T06:26:45;2.20;99.90
47162;DHT22;32921;53.256;8.198;2023-01-23T06:29:11;2.20;99.90
47162;DHT22;32921;53.256;8.198;2023-01-23T06:31:36;2.20;99.90
47162;DHT22;32921;53.256;8.198;2023-01-23T06:34:02;2.20;99.90
47162;DHT22;32921;53.256;8.198;2023-01-23T06:36:27;2.00;99.90
47162;DHT22;32921;53.256;8.198;2023-01-23T06:38:53;2.00;99.90
47162;DHT22;32921;53.256;8.198;2023-01-23T06:41:19;2.10;99.90
47162;DHT22;32921;53.256;8.198;2023-01-23T06:43:44;2.10;99.90
47162;DHT22;32921;53.256;8.198;2023-01-23T06:46:10;2.00;99.90
47162;DHT22;32921;53.256;8.198;2023-01-23T06:48:36;2.10;99.90
47162;DHT22;32921;53.256;8.198;2023-01-23T06:51:03;2.10;99.90
47162;DHT22;32921;53.256;8.198;2023-01-23T06:53:29;2.00;99.90
47162;DHT22;32921;53.256;8.198;2023-01-23T06:56:00;2.10;99.90
47162;DHT22;32921;53.256;8.198;2023-01-23T06:58:26;2.10;99.90
47162;DHT22;32921;53.256;8.198;2023-01-23T07:00:51;2.10;99.90
47162;DHT22;32921;53.256;8.198;2023-01-23T07:03:17;2.10;99.90
47162;DHT22;32921;53.256;8.198;2023-01-23T07:05:42;2.10;99.90
47162;DHT22;32921;53.256;8.198;2023-01-23T07:08:08;2.10;99.90
47162;DHT22;32921;53.256;8.198;2023-01-23T07:10:35;2.10;99.90
47162;DHT22;32921;53.256;8.198;2023-01-23T07:13:05;2.10;99.90
47162;DHT22;32921;53.256;8.198;2023-01-23T07:15:32;2.10;99.90
47162;DHT22;32921;53.256;8.198;2023-01-23T07:17:58;2.10;99.90
47162;DHT22;32921;53.256;8.198;2023-01-23T07:20:24;2.10;99.90
47162;DHT22;32921;53.256;8.198;2023-01-23T07:22:53;2.10;99.90
47162;DHT22;32921;53.256;8.198;2023-01-23T07:25:19;2.10;99.90
47162;DHT22;32921;53.256;8.198;2023-01-23T07:27:45;2.20;99.90
47162;DHT22;32921;53.256;8.198;2023-01-23T07:30:11;2.20;99.90
47162;DHT22;32921;53.256;8.198;2023-01-23T07:32:36;2.20;99.90
47162;DHT22;32921;53.256;8.198;2023-01-23T07:35:02;2.20;99.90
47162;DHT22;32921;53.256;8.198;2023-01-23T07:37:28;2.20;99.90
47162;DHT22;32921;53.256;8.198;2023-01-23T07:39:53;2.20;99.90
47162;DHT22;32921;53.256;8.198;2023-01-23T07:42:19;2.20;99.90
47162;DHT22;32921;53.256;8.198;2023-01-23T07:44:44;2.20;99.90
47162;DHT22;32921;53.256;8.198;2023-01-23T07:47:10;2.30;99.90
47162;DHT22;32921;53.256;8.198;2023-01-23T07:49:35;2.30;99.90
47162;DHT22;32921;53.256;8.198;2023-01-23T07:52:01;2.40;99.90
47162;DHT22;32921;53.256;8.198;2023-01-23T07:54:28;2.30;99.90
47162;DHT22;32921;53.256;8.198;2023-01-23T07:56:53;2.30;99.90
47162;DHT22;32921;53.256;8.198;2023-01-23T07:59:19;2.30;99.90
47162;DHT22;32921;53.256;8.198;2023-01-23T08:01:45;2.30;99.90
47162;DHT22;32921;53.256;8.198;2023-01-23T08:04:10;2.20;99.90
47162;DHT22;32921;53.256;8.198;2023-01-23T08:06:36;2.30;99.90
47162;DHT22;32921;53.256;8.198;2023-01-23T08:09:02;2.30;99.90
47162;DHT22;32921;53.256;8.198;2023-01-23T08:11:28;2.30;99.90
47162;DHT22;32921;53.256;8.198;2023-01-23T08:13:53;2.30;99.90
47162;DHT22;32921;53.256;8.198;2023-01-23T08:16:19;2.30;99.90
47162;DHT22;32921;53.256;8.198;2023-01-23T08:18:44;2.30;99.90
47162;DHT22;32921;53.256;8.198;2023-01-23T08:21:10;2.30;99.90
47162;DHT22;32921;53.256;8.198;2023-01-23T08:23:36;2.30;99.90
47162;DHT22;32921;53.256;8.198;2023-01-23T08:26:04;2.30;99.90
47162;DHT22;32921;53.256;8.198;2023-01-23T08:28:30;2.40;99.90
47162;DHT22;32921;53.256;8.198;2023-01-23T08:31:00;2.40;99.90
47162;DHT22;32921;53.256;8.198;2023-01-23T08:33:25;2.50;99.90
47162;DHT22;32921;53.256;8.198;2023-01-23T08:35:56;2.50;99.90
47162;DHT22;32921;53.256;8.198;2023-01-23T08:38:22;2.50;99.90
47162;DHT22;32921;53.256;8.198;2023-01-23T08:40:49;2.50;99.90
47162;DHT22;32921;53.256;8.198;2023-01-23T08:43:16;2.50;99.90
47162;DHT22;32921;53.256;8.198;2023-01-23T08:45:50;2.50;99.90
47162;DHT22;32921;53.256;8.198;2023-01-23T08:48:16;2.50;99.90
47162;DHT22;32921;53.256;8.198;2023-01-23T08:50:42;2.50;99.90
47162;DHT22;32921;53.256;8.198;2023-01-23T08:53:08;2.50;99.90
47162;DHT22;32921;53.256;8.198;2023-01-23T08:55:33;2.60;99.90
47162;DHT22;32921;53.256;8.198;2023-01-23T08:58:01;2.60;99.90
47162;DHT22;32921;53.256;8.198;2023-01-23T09:00:27;2.60;99.90
47162;DHT22;32921;53.256;8.198;2023-01-23T09:02:52;2.60;99.90
47162;DHT22;32921;53.256;8.198;2023-01-23T09:05:18;2.70;99.90
47162;DHT22;32921;53.256;8.198;2023-01-23T09:07:44;2.60;99.90
47162;DHT22;32921;53.256;8.198;2023-01-23T09:10:10;2.60;99.90
47162;DHT22;32921;53.256;8.198;2023-01-23T09:12:37;2.70;99.90
47162;DHT22;32921;53.256;8.198;2023-01-23T09:15:03;2.80;99.90
47162;DHT22;32921;53.256;8.198;2023-01-23T09:17:29;2.90;99.90
47162;DHT22;32921;53.256;8.198;2023-01-23T09:19:55;3.00;99.90
47162;DHT22;32921;53.256;8.198;2023-01-23T09:22:20;2.90;99.90
47162;DHT22;32921;53.256;8.198;2023-01-23T09:24:46;2.90;99.90
47162;DHT22;32921;53.256;8.198;2023-01-23T09:27:11;2.90;99.90
47162;DHT22;32921;53.256;8.198;2023-01-23T09:29:37;3.00;99.90
47162;DHT22;32921;53.256;8.198;2023-01-23T09:32:02;3.00;99.90
47162;DHT22;32921;53.256;8.198;2023-01-23T09:34:29;3.00;99.90
47162;DHT22;32921;53.256;8.198;2023-01-23T09:36:55;2.90;99.90
47162;DHT22;32921;53.256;8.198;2023-01-23T09:39:20;2.90;99.90
47162;DHT22;32921;53.256;8.198;2023-01-23T09:41:47;2.90;99.90
47162;DHT22;32921;53.256;8.198;2023-01-23T09:44:38;2.90;99.90
47162;DHT22;32921;53.256;8.198;2023-01-23T09:47:35;2.90;99.90
47162;DHT22;32921;53.256;8.198;2023-01-23T09:50:13;3.10;99.90
47162;DHT22;32921;53.256;8.198;2023-01-23T09:52:48;3.20;99.90
47162;DHT22;32921;53.256;8.198;2023-01-23T09:55:43;3.40;99.90
47162;DHT22;32921;53.256;8.198;2023-01-23T09:58:41;3.50;99.90
47162;DHT22;32921;53.256;8.198;2023-01-23T10:01:04;3.50;99.90
47162;DHT22;32921;53.256;8.198;2023-01-23T10:03:31;3.60;99.90
47162;DHT22;32921;53.256;8.198;2023-01-23T10:14:38;3.60;99.90
47162;DHT22;32921;53.256;8.198;2023-01-23T10:20:11;3.70;99.90
47162;DHT22;32921;53.256;8.198;2023-01-23T10:25:19;3.70;99.90
47162;DHT22;32921;53.256;8.198;2023-01-23T10:27:47;3.80;99.90
47162;DHT22;32921;53.256;8.198;2023-01-23T10:30:28;3.80;99.90
47162;DHT22;32921;53.256;8.198;2023-01-23T10:32:58;3.90;99.90
47162;DHT22;32921;53.256;8.198;2023-01-23T10:38:04;3.80;99.90
47162;DHT22;32921;53.256;8.198;2023-01-23T10:40:35;3.70;99.90
47162;DHT22;32921;53.256;8.198;2023-01-23T10:43:20;3.80;99.90
47162;DHT22;32921;53.256;8.198;2023-01-23T10:45:47;3.90;99.90
47162;DHT22;32921;53.256;8.198;2023-01-23T10:50:52;4.30;99.90
47162;DHT22;32921;53.256;8.198;2023-01-23T10:53:20;4.20;99.90
47162;DHT22;32921;53.256;8.198;2023-01-23T10:55:46;4.20;99.90
47162;DHT22;32921;53.256;8.198;2023-01-23T10:58:32;4.20;99.90
47162;DHT22;32921;53.256;8.198;2023-01-23T11:01:01;4.20;99.90
47162;DHT22;32921;53.256;8.198;2023-01-23T11:03:31;4.30;99.90
47162;DHT22;32921;53.256;8.198;2023-01-23T11:06:03;4.40;99.90
47162;DHT22;32921;53.256;8.198;2023-01-23T11:08:35;4.40;99.90
47162;DHT22;32921;53.256;8.198;2023-01-23T11:11:21;4.60;99.90
47162;DHT22;32921;53.256;8.198;2023-01-23T11:13:49;4.60;99.90
47162;DHT22;32921;53.256;8.198;2023-01-23T11:16:20;4.60;99.90
47162;DHT22;32921;53.256;8.198;2023-01-23T11:21:37;4.80;99.90
47162;DHT22;32921;53.256;8.198;2023-01-23T11:32:41;4.40;99.90
47162;DHT22;32921;53.256;8.198;2023-01-23T11:38:01;4.40;99.90
47162;DHT22;32921;53.256;8.198;2023-01-23T11:40:28;4.30;99.90
47162;DHT22;32921;53.256;8.198;2023-01-23T11:42:53;4.30;99.90
47162;DHT22;32921;53.256;8.198;2023-01-23T11:45:43;4.10;99.90
47162;DHT22;32921;53.256;8.198;2023-01-23T11:50:45;4.30;99.90
47162;DHT22;32921;53.256;8.198;2023-01-23T12:09:47;4.00;99.90
47162;DHT22;32921;53.256;8.198;2023-01-23T12:17:51;4.10;99.90
47162;DHT22;32921;53.256;8.198;2023-01-23T12:23:21;4.10;99.90
47162;DHT22;32921;53.256;8.198;2023-01-23T12:26:14;4.20;99.90
47162;DHT22;32921;53.256;8.198;2023-01-23T12:31:44;4.10;99.90
47162;DHT22;32921;53.256;8.198;2023-01-23T12:38:22;4.20;99.90
47162;DHT22;32921;53.256;8.198;2023-01-23T12:43:17;4.10;99.90
47162;DHT22;32921;53.256;8.198;2023-01-23T12:45:55;4.10;99.90
47162;DHT22;32921;53.256;8.198;2023-01-23T12:48:31;4.10;99.90
47162;DHT22;32921;53.256;8.198;2023-01-23T12:51:14;4.20;99.90
47162;DHT22;32921;53.256;8.198;2023-01-23T12:53:43;4.20;99.90
47162;DHT22;32921;53.256;8.198;2023-01-23T12:56:14;4.20;99.90
47162;DHT22;32921;53.256;8.198;2023-01-23T12:59:06;4.20;99.90
47162;DHT22;32921;53.256;8.198;2023-01-23T13:02:02;4.20;99.90
47162;DHT22;32921;53.256;8.198;2023-01-23T13:04:49;4.10;99.90
47162;DHT22;32921;53.256;8.198;2023-01-23T13:08:01;4.10;99.90
47162;DHT22;32921;53.256;8.198;2023-01-23T13:11:06;4.10;99.90
47162;DHT22;32921;53.256;8.198;2023-01-23T13:13:52;4.10;99.90
47162;DHT22;32921;53.256;8.198;2023-01-23T13:16:19;4.10;99.90
47162;DHT22;32921;53.256;8.198;2023-01-23T13:18:56;4.20;99.90
47162;DHT22;32921;53.256;8.198;2023-01-23T13:22:01;4.10;99.90
47162;DHT22;32921;53.256;8.198;2023-01-23T13:35:55;4.10;99.90
47162;DHT22;32921;53.256;8.198;2023-01-23T13:43:51;4.10;99.90
47162;DHT22;32921;53.256;8.198;2023-01-23T13:49:44;3.90;99.90
47162;DHT22;32921;53.256;8.198;2023-01-23T13:52:27;3.90;99.90
47162;DHT22;32921;53.256;8.198;2023-01-23T13:58:02;4.10;99.90
47162;DHT22;32921;53.256;8.198;2023-01-23T14:00:30;4.10;99.90
47162;DHT22;32921;53.256;8.198;2023-01-23T14:03:27;4.10;99.90
47162;DHT22;32921;53.256;8.198;2023-01-23T14:06:12;3.90;99.90
47162;DHT22;32921;53.256;8.198;2023-01-23T14:08:52;4.00;99.90
47162;DHT22;32921;53.256;8.198;2023-01-23T14:11:20;4.00;99.90
47162;DHT22;32921;53.256;8.198;2023-01-23T14:13:50;4.00;99.90
47162;DHT22;32921;53.256;8.198;2023-01-23T14:16:40;4.00;99.90
47162;DHT22;32921;53.256;8.198;2023-01-23T14:19:24;4.00;99.90
47162;DHT22;32921;53.256;8.198;2023-01-23T14:21:54;4.00;99.90
47162;DHT22;32921;53.256;8.198;2023-01-23T14:26:57;3.90;99.90
47162;DHT22;32921;53.256;8.198;2023-01-23T14:29:26;3.90;99.90
47162;DHT22;32921;53.256;8.198;2023-01-23T14:31:52;3.80;99.90
47162;DHT22;32921;53.256;8.198;2023-01-23T14:34:21;3.70;99.90
47162;DHT22;32921;53.256;8.198;2023-01-23T14:37:09;3.80;99.90
47162;DHT22;32921;53.256;8.198;2023-01-23T14:39:36;3.70;99.90
47162;DHT22;32921;53.256;8.198;2023-01-23T14:42:03;3.60;99.90
47162;DHT22;32921;53.256;8.198;2023-01-23T14:44:40;3.70;99.90
47162;DHT22;32921;53.256;8.198;2023-01-23T14:47:13;3.70;99.90
47162;DHT22;32921;53.256;8.198;2023-01-23T14:49:40;3.60;99.90
47162;DHT22;32921;53.256;8.198;2023-01-23T14:52:06;3.60;99.90
47162;DHT22;32921;53.256;8.198;2023-01-23T14:54:33;3.60;99.90
47162;DHT22;32921;53.256;8.198;2023-01-23T14:57:00;3.70;99.90
47162;DHT22;32921;53.256;8.198;2023-01-23T14:59:39;3.60;99.90
47162;DHT22;32921;53.256;8.198;2023-01-23T15:02:26;3.60;99.90
47162;DHT22;32921;53.256;8.198;2023-01-23T15:07:54;3.60;99.90
47162;DHT22;32921;53.256;8.198;2023-01-23T15:10:26;3.50;99.90
47162;DHT22;32921;53.256;8.198;2023-01-23T15:13:00;3.60;99.90
47162;DHT22;32921;53.256;8.198;2023-01-23T15:15:28;3.60;99.90
47162;DHT22;32921;53.256;8.198;2023-01-23T15:17:55;3.60;99.90
47162;DHT22;32921;53.256;8.198;2023-01-23T15:20:39;3.50;99.90
47162;DHT22;32921;53.256;8.198;2023-01-23T15:23:21;3.50;99.90
47162;DHT22;32921;53.256;8.198;2023-01-23T15:25:48;3.40;99.90
47162;DHT22;32921;53.256;8.198;2023-01-23T15:28:30;3.50;99.90
47162;DHT22;32921;53.256;8.198;2023-01-23T15:30:56;3.40;99.90
47162;DHT22;32921;53.256;8.198;2023-01-23T15:33:30;3.40;99.90
47162;DHT22;32921;53.256;8.198;2023-01-23T15:36:05;3.40;99.90
47162;DHT22;32921;53.256;8.198;2023-01-23T15:38:31;3.40;99.90
47162;DHT22;32921;53.256;8.198;2023-01-23T15:40:57;3.40;99.90
47162;DHT22;32921;53.256;8.198;2023-01-23T15:43:23;3.40;99.90
47162;DHT22;32921;53.256;8.198;2023-01-23T15:45:49;3.30;99.90
47162;DHT22;32921;53.256;8.198;2023-01-23T15:48:15;3.30;99.90
47162;DHT22;32921;53.256;8.198;2023-01-23T15:50:40;3.30;99.90
47162;DHT22;32921;53.256;8.198;2023-01-23T15:53:11;3.30;99.90
47162;DHT22;32921;53.256;8.198;2023-01-23T15:55:37;3.20;99.90
47162;DHT22;32921;53.256;8.198;2023-01-23T15:58:03;3.20;99.90
47162;DHT22;32921;53.256;8.198;2023-01-23T16:00:29;3.10;99.90
47162;DHT22;32921;53.256;8.198;2023-01-23T16:02:58;3.10;99.90
47162;DHT22;32921;53.256;8.198;2023-01-23T16:05:26;3.00;99.90
47162;DHT22;32921;53.256;8.198;2023-01-23T16:07:53;3.00;99.90
47162;DHT22;32921;53.256;8.198;2023-01-23T16:10:28;2.90;99.90
47162;DHT22;32921;53.256;8.198;2023-01-23T16:12:56;2.90;99.90
47162;DHT22;32921;53.256;8.198;2023-01-23T16:15:30;3.00;99.90
47162;DHT22;32921;53.256;8.198;2023-01-23T16:17:57;2.90;99.90
47162;DHT22;32921;53.256;8.198;2023-01-23T16:20:43;2.90;99.90
47162;DHT22;32921;53.256;8.198;2023-01-23T16:23:15;2.80;99.90
47162;DHT22;32921;53.256;8.198;2023-01-23T16:25:41;2.80;99.90
47162;DHT22;32921;53.256;8.198;2023-01-23T16:28:12;2.80;99.90
47162;DHT22;32921;53.256;8.198;2023-01-23T16:30:38;2.90;99.90
47162;DHT22;32921;53.256;8.198;2023-01-23T16:33:03;2.90;99.90
47162;DHT22;32921;53.256;8.198;2023-01-23T16:35:29;2.90;99.90
47162;DHT22;32921;53.256;8.198;2023-01-23T16:37:55;2.80;99.90
47162;DHT22;32921;53.256;8.198;2023-01-23T16:40:30;2.70;99.90
47162;DHT22;32921;53.256;8.198;2023-01-23T16:42:56;2.70;99.90
47162;DHT22;32921;53.256;8.198;2023-01-23T16:45:25;2.60;99.90
47162;DHT22;32921;53.256;8.198;2023-01-23T16:47:51;2.80;99.90
47162;DHT22;32921;53.256;8.198;2023-01-23T16:50:38;2.90;99.90
47162;DHT22;32921;53.256;8.198;2023-01-23T16:53:21;2.90;99.90
47162;DHT22;32921;53.256;8.198;2023-01-23T16:55:47;2.80;99.90
47162;DHT22;32921;53.256;8.198;2023-01-23T16:58:19;2.80;99.90
47162;DHT22;32921;53.256;8.198;2023-01-23T17:00:46;2.90;99.90
47162;DHT22;32921;53.256;8.198;2023-01-23T17:03:22;2.90;99.90
47162;DHT22;32921;53.256;8.198;2023-01-23T17:05:49;2.90;99.90
47162;DHT22;32921;53.256;8.198;2023-01-23T17:08:20;2.90;99.90
47162;DHT22;32921;53.256;8.198;2023-01-23T17:10:53;2.90;99.90
47162;DHT22;32921;53.256;8.198;2023-01-23T17:13:21;2.90;99.90
47162;DHT22;32921;53.256;8.198;2023-01-23T17:15:50;2.90;99.90
47162;DHT22;32921;53.256;8.198;2023-01-23T17:18:27;2.90;99.90
47162;DHT22;32921;53.256;8.198;2023-01-23T17:20:54;2.90;99.90
47162;DHT22;32921;53.256;8.198;2023-01-23T17:23:21;2.90;99.90
47162;DHT22;32921;53.256;8.198;2023-01-23T17:25:47;2.80;99.90
47162;DHT22;32921;53.256;8.198;2023-01-23T17:28:15;2.90;99.90
47162;DHT22;32921;53.256;8.198;2023-01-23T17:30:41;2.90;99.90
47162;DHT22;32921;53.256;8.198;2023-01-23T17:35:41;2.90;99.90
47162;DHT22;32921;53.256;8.198;2023-01-23T17:38:24;2.90;99.90
47162;DHT22;32921;53.256;8.198;2023-01-23T17:40:51;2.90;99.90
47162;DHT22;32921;53.256;8.198;2023-01-23T17:43:18;2.90;99.90
47162;DHT22;32921;53.256;8.198;2023-01-23T17:45:45;2.90;99.90
47162;DHT22;32921;53.256;8.198;2023-01-23T17:48:14;3.00;99.90
47162;DHT22;32921;53.256;8.198;2023-01-23T17:50:42;2.90;99.90